createdAt,value
2023-05-08T04:00:30.132Z,433.00
2023-05-08T04:01:31.133Z,427.00
2023-05-08T04:02:31.155Z,436.00
2023-05-08T04:03:31.129Z,445.00
2023-05-08T04:04:31.037Z,453.00
2023-05-08T04:05:31.048Z,473.00
2023-05-08T04:06:38.840Z,475.00
2023-05-08T04:07:31.064Z,486.00
2023-05-08T04:08:31.007Z,501.00
2023-05-08T04:09:30.982Z,504.00
2023-05-08T04:10:30.984Z,519.00
2023-05-08T04:11:30.956Z,532.00
2023-05-08T04:12:30.952Z,536.00
2023-05-08T04:13:31.136Z,545.00
2023-05-08T04:14:30.953Z,560.00
2023-05-08T04:15:30.933Z,563.00
2023-05-08T04:16:30.943Z,573.00
2023-05-08T04:17:30.921Z,579.00
2023-05-08T04:18:30.928Z,592.00
2023-05-08T04:19:30.887Z,599.00
2023-05-08T04:20:30.883Z,609.00
2023-05-08T04:21:32.088Z,615.00
2023-05-08T04:22:30.843Z,616.00
2023-05-08T04:23:30.845Z,625.00
2023-05-08T04:24:30.825Z,633.00
2023-05-08T04:25:30.840Z,643.00
2023-05-08T04:26:30.833Z,652.00
2023-05-08T04:27:30.791Z,660.00
2023-05-08T04:28:30.790Z,665.00
2023-05-08T04:29:30.765Z,673.00
2023-05-08T04:30:30.785Z,678.00
2023-05-08T04:31:30.796Z,679.00
2023-05-08T04:32:30.762Z,693.00
2023-05-08T04:33:30.796Z,694.00
2023-05-08T04:34:30.709Z,702.00
2023-05-08T04:35:30.703Z,699.00
2023-05-08T04:36:30.706Z,708.00
2023-05-08T04:37:30.685Z,729.00
2023-05-08T04:38:30.686Z,723.00
2023-05-08T04:39:30.656Z,727.00
2023-05-08T04:40:30.648Z,733.00
2023-05-08T04:41:30.660Z,742.00
2023-05-08T04:42:30.629Z,743.00
2023-05-08T04:43:30.634Z,749.00
2023-05-08T04:44:30.646Z,752.00
2023-05-08T04:45:30.601Z,758.00
2023-05-08T04:46:30.779Z,752.00
2023-05-08T04:47:30.836Z,766.00
2023-05-08T04:48:30.581Z,772.00
2023-05-08T04:49:30.688Z,782.00
2023-05-08T04:50:30.542Z,771.00
2023-05-08T04:51:30.544Z,790.00
2023-05-08T04:52:30.529Z,784.00
2023-05-08T04:53:30.529Z,785.00
2023-05-08T04:54:30.500Z,795.00
2023-05-08T04:55:30.508Z,800.00
2023-05-08T04:56:30.517Z,802.00
2023-05-08T04:57:30.455Z,803.00
2023-05-08T04:58:30.455Z,804.00
2023-05-08T04:59:30.444Z,792.00
2023-05-08T05:00:30.437Z,817.00
2023-05-08T05:01:30.464Z,795.00
2023-05-08T05:02:30.468Z,833.00
2023-05-08T05:03:30.469Z,804.00
2023-05-08T05:04:30.388Z,828.00
2023-05-08T05:05:30.378Z,819.00
2023-05-08T05:06:30.373Z,832.00
2023-05-08T05:07:30.360Z,828.00
2023-05-08T05:08:30.376Z,819.00
2023-05-08T05:09:30.350Z,851.00
2023-05-08T05:10:30.314Z,825.00
2023-05-08T05:11:30.340Z,833.00
2023-05-08T05:12:30.296Z,845.00
2023-05-08T05:13:30.314Z,837.00
2023-05-08T05:14:30.281Z,841.00
2023-05-08T05:15:30.264Z,837.00
2023-05-08T05:16:30.274Z,843.00
2023-05-08T05:17:30.311Z,857.00
2023-05-08T05:18:30.228Z,859.00
2023-05-08T05:19:30.218Z,855.00
2023-05-08T05:20:30.205Z,860.00
2023-05-08T05:21:30.201Z,875.00
2023-05-08T05:22:30.182Z,854.00
2023-05-08T05:23:30.172Z,883.00
2023-05-08T05:24:30.163Z,892.00
2023-05-08T05:25:30.155Z,877.00
2023-05-08T05:26:30.158Z,899.00
2023-05-08T05:27:30.132Z,893.00
2023-05-08T05:28:30.119Z,860.00
2023-05-08T05:29:30.107Z,875.00
2023-05-08T05:30:30.099Z,915.00
2023-05-08T05:31:30.195Z,887.00
2023-05-08T05:32:30.113Z,899.00
2023-05-08T05:33:30.067Z,914.00
2023-05-08T05:34:30.062Z,879.00
2023-05-08T05:35:30.050Z,926.00
2023-05-08T05:36:30.038Z,896.00
2023-05-08T05:37:30.026Z,882.00
2023-05-08T05:38:30.007Z,952.00
2023-05-08T05:39:30.002Z,926.00
2023-05-08T05:40:30.010Z,889.00
2023-05-08T05:41:29.979Z,914.00
2023-05-08T05:42:29.963Z,931.00
2023-05-08T05:43:29.952Z,910.00
2023-05-08T05:44:29.944Z,946.00
2023-05-08T05:45:32.573Z,904.00
2023-05-08T05:46:29.970Z,977.00
2023-05-08T05:47:29.933Z,893.00
2023-05-08T05:48:29.893Z,933.00
2023-05-08T05:49:29.886Z,931.00
2023-05-08T05:50:29.871Z,912.00
2023-05-08T05:51:29.875Z,942.00
2023-05-08T05:52:29.849Z,937.00
2023-05-08T05:53:29.847Z,941.00
2023-05-08T05:54:29.824Z,973.00
2023-05-08T05:55:29.888Z,963.00
2023-05-08T05:56:29.816Z,971.00
2023-05-08T05:57:29.819Z,971.00
2023-05-08T05:58:29.780Z,975.00
2023-05-08T05:59:29.785Z,1016.00
2023-05-08T06:00:29.780Z,988.00
2023-05-08T06:01:29.783Z,1024.00
2023-05-08T06:02:29.841Z,1033.00
2023-05-08T06:03:29.861Z,1022.00
2023-05-08T06:04:29.756Z,1082.00
2023-05-08T06:05:29.713Z,1056.00
2023-05-08T06:06:29.723Z,1050.00
2023-05-08T06:07:29.693Z,1090.00
2023-05-08T06:08:29.667Z,1092.00
2023-05-08T06:09:29.676Z,1047.00
2023-05-08T06:10:29.657Z,1126.00
2023-05-08T06:11:29.642Z,1121.00
2023-05-08T06:12:29.640Z,1133.00
2023-05-08T06:13:29.698Z,1114.00
2023-05-08T06:14:29.607Z,1133.00
2023-05-08T06:15:29.592Z,1128.00
2023-05-08T06:16:29.597Z,1118.00
2023-05-08T06:17:29.630Z,1127.00
2023-05-08T06:18:29.576Z,1160.00
2023-05-08T06:19:29.562Z,1131.00
2023-05-08T06:20:29.539Z,1129.00
2023-05-08T06:21:29.543Z,1142.00
2023-05-08T06:22:29.533Z,1150.00
2023-05-08T06:23:29.514Z,1158.00
2023-05-08T06:24:29.490Z,1191.00
2023-05-08T06:25:29.489Z,1200.00
2023-05-08T06:26:29.485Z,1229.00
2023-05-08T06:27:29.485Z,1142.00
2023-05-08T06:28:29.467Z,1229.00
2023-05-08T06:29:29.442Z,1234.00
2023-05-08T06:30:29.440Z,1220.00
2023-05-08T06:31:29.568Z,1278.00
2023-05-08T06:32:29.450Z,1240.00
2023-05-08T06:33:29.396Z,1290.00
2023-05-08T06:34:29.391Z,1283.00
2023-05-08T06:35:29.373Z,1278.00
2023-05-08T06:36:29.376Z,1308.00
2023-05-08T06:37:29.363Z,1260.00
2023-05-08T06:38:29.340Z,1373.00
2023-05-08T06:39:29.350Z,1392.00
2023-05-08T06:40:29.325Z,1410.00
2023-05-08T06:41:29.321Z,1439.00
2023-05-08T06:42:29.337Z,1404.00
2023-05-08T06:43:29.288Z,1413.00
2023-05-08T06:44:29.270Z,1450.00
2023-05-08T06:45:29.269Z,1433.00
2023-05-08T06:46:29.288Z,1446.00
2023-05-08T06:47:29.324Z,1483.00
2023-05-08T06:48:29.515Z,1513.00
2023-05-08T06:49:29.271Z,1507.00
2023-05-08T06:50:29.252Z,1557.00
2023-05-08T06:51:29.202Z,1563.00
2023-05-08T06:52:29.207Z,1587.00
2023-05-08T06:53:29.226Z,1609.00
2023-05-08T06:54:29.189Z,1676.00
2023-05-08T06:55:29.207Z,1668.00
2023-05-08T06:56:29.166Z,1715.00
2023-05-08T06:57:29.165Z,1788.00
2023-05-08T06:58:29.120Z,1731.00
2023-05-08T06:59:29.118Z,1802.00
2023-05-08T07:00:29.147Z,1826.00
2023-05-08T07:01:29.139Z,1775.00
2023-05-08T07:02:29.124Z,1843.00
2023-05-08T07:03:29.091Z,1851.00
2023-05-08T07:04:32.038Z,1875.00
2023-05-08T07:05:29.071Z,1938.00
2023-05-08T07:06:29.038Z,1984.00
2023-05-08T07:07:29.033Z,2048.00
2023-05-08T07:08:29.005Z,2049.00
2023-05-08T07:09:29.005Z,2072.00
2023-05-08T07:10:28.985Z,2040.00
2023-05-08T07:11:29.006Z,2054.00
2023-05-08T07:12:28.982Z,2152.00
2023-05-08T07:13:29.119Z,2156.00
2023-05-08T07:14:28.947Z,2190.00
2023-05-08T07:15:29.077Z,2117.00
2023-05-08T07:16:29.029Z,2319.00
2023-05-08T07:17:28.972Z,2187.00
2023-05-08T07:18:28.892Z,2209.00
2023-05-08T07:19:28.907Z,2237.00
2023-05-08T07:20:28.873Z,2347.00
2023-05-08T07:21:28.881Z,2301.00
2023-05-08T07:22:28.927Z,2327.00
2023-05-08T07:23:28.863Z,2296.00
2023-05-08T07:24:28.832Z,2367.00
2023-05-08T07:25:28.852Z,2454.00
2023-05-08T07:26:28.808Z,2456.00
2023-05-08T07:27:28.805Z,2439.00
2023-05-08T07:28:28.835Z,2482.00
2023-05-08T07:29:28.783Z,2438.00
2023-05-08T07:30:28.777Z,2422.00
2023-05-08T07:31:28.792Z,2503.00
2023-05-08T07:32:28.785Z,2523.00
2023-05-08T07:33:28.740Z,2528.00
2023-05-08T07:34:29.134Z,2530.00
2023-05-08T07:35:28.718Z,2597.00
2023-05-08T07:36:28.698Z,2552.00
2023-05-08T07:37:28.702Z,2549.00
2023-05-08T07:38:28.687Z,2612.00
2023-05-08T07:39:28.669Z,2685.00
2023-05-08T07:40:28.674Z,2667.00
2023-05-08T07:41:28.710Z,2640.00
2023-05-08T07:42:28.638Z,2619.00
2023-05-08T07:43:28.649Z,2552.00
2023-05-08T07:44:28.651Z,2728.00
2023-05-08T07:45:28.596Z,2662.00
2023-05-08T07:46:28.682Z,2788.00
2023-05-08T07:47:28.620Z,2706.00
2023-05-08T07:48:28.563Z,2754.00
2023-05-08T07:49:28.558Z,2774.00
2023-05-08T07:50:28.545Z,2740.00
2023-05-08T07:51:28.543Z,2679.00
2023-05-08T07:52:28.564Z,2748.00
2023-05-08T07:53:28.506Z,2604.00
2023-05-08T07:54:28.493Z,2826.00
2023-05-08T07:55:28.489Z,2705.00
2023-05-08T07:56:28.481Z,2749.00
2023-05-08T07:57:28.478Z,2799.00
2023-05-08T07:58:28.477Z,2892.00
2023-05-08T07:59:28.439Z,2877.00
2023-05-08T08:00:28.441Z,3057.00
2023-05-08T08:01:28.439Z,2955.00
2023-05-08T08:02:28.537Z,2934.00
2023-05-08T08:03:28.511Z,2911.00
2023-05-08T08:04:28.468Z,2816.00
2023-05-08T08:05:28.383Z,2925.00
2023-05-08T08:06:28.366Z,3049.00
2023-05-08T08:07:28.351Z,3062.00
2023-05-08T08:08:28.354Z,2957.00
2023-05-08T08:09:28.341Z,2836.00
2023-05-08T08:10:28.348Z,2978.00
2023-05-08T08:11:28.309Z,3154.00
2023-05-08T08:12:28.305Z,2976.00
2023-05-08T08:13:28.349Z,2928.00
2023-05-08T08:14:28.283Z,3191.00
2023-05-08T08:15:28.270Z,3075.00
2023-05-08T08:16:28.293Z,2979.00
2023-05-08T08:17:29.110Z,3052.00
2023-05-08T08:18:28.239Z,2963.00
2023-05-08T08:19:28.217Z,3101.00
2023-05-08T08:20:28.242Z,2966.00
2023-05-08T08:21:28.219Z,3029.00
2023-05-08T08:22:28.229Z,2982.00
2023-05-08T08:23:28.177Z,2854.00
2023-05-08T08:24:28.163Z,3050.00
2023-05-08T08:25:28.181Z,2854.00
2023-05-08T08:26:28.139Z,2929.00
2023-05-08T08:27:28.131Z,3182.00
2023-05-08T08:28:28.110Z,2983.00
2023-05-08T08:29:28.114Z,2931.00
2023-05-08T08:30:28.122Z,2889.00
2023-05-08T08:31:28.120Z,3006.00
2023-05-08T08:32:28.093Z,2948.00
2023-05-08T08:33:28.064Z,3100.00
2023-05-08T08:34:28.060Z,2952.00
2023-05-08T08:35:28.048Z,3058.00
2023-05-08T08:36:28.051Z,3194.00
2023-05-08T08:37:28.034Z,3106.00
2023-05-08T08:38:28.004Z,3141.00
2023-05-08T08:39:28.006Z,3115.00
2023-05-08T08:40:28.009Z,3238.00
2023-05-08T08:41:28.075Z,3117.00
2023-05-08T08:42:27.976Z,3284.00
2023-05-08T08:43:27.965Z,3130.00
2023-05-08T08:44:27.957Z,3178.00
2023-05-08T08:45:27.929Z,3281.00
2023-05-08T08:46:28.018Z,3256.00
2023-05-08T08:47:27.996Z,3291.00
2023-05-08T08:48:27.888Z,3090.00
2023-05-08T08:49:27.891Z,3468.00
2023-05-08T08:50:27.884Z,3268.00
2023-05-08T08:51:28.204Z,3217.00
2023-05-08T08:52:27.868Z,3349.00
2023-05-08T08:53:27.853Z,3337.00
2023-05-08T08:54:27.849Z,3528.00
2023-05-08T08:55:27.832Z,3301.00
2023-05-08T08:56:27.822Z,3543.00
2023-05-08T08:57:27.802Z,3605.00
2023-05-08T08:58:27.799Z,3580.00
2023-05-08T08:59:27.799Z,3653.00
2023-05-08T09:00:27.767Z,3810.00
2023-05-08T09:01:27.761Z,3773.00
2023-05-08T09:02:27.893Z,3882.00
2023-05-08T09:03:27.871Z,3908.00
2023-05-08T09:04:27.724Z,3869.00
2023-05-08T09:05:27.718Z,4121.00
2023-05-08T09:06:27.890Z,4086.00
2023-05-08T09:07:27.689Z,3979.00
2023-05-08T09:08:27.854Z,4176.00
2023-05-08T09:09:27.673Z,3965.00
2023-05-08T09:10:27.701Z,4095.00
2023-05-08T09:11:27.673Z,4263.00
2023-05-08T09:12:27.645Z,4208.00
2023-05-08T09:13:27.653Z,4277.00
2023-05-08T09:14:27.676Z,4237.00
2023-05-08T09:15:27.592Z,4288.00
2023-05-08T09:16:27.641Z,4272.00
2023-05-08T09:17:27.616Z,4180.00
2023-05-08T09:18:27.559Z,4664.00
2023-05-08T09:19:28.969Z,4185.00
2023-05-08T09:20:27.573Z,4428.00
2023-05-08T09:21:27.529Z,4518.00
2023-05-08T09:22:27.567Z,4287.00
2023-05-08T09:23:27.515Z,4390.00
2023-05-08T09:24:28.565Z,4592.00
2023-05-08T09:25:27.492Z,4239.00
2023-05-08T09:26:27.511Z,4387.00
2023-05-08T09:27:27.471Z,4697.00
2023-05-08T09:28:27.461Z,4386.00
2023-05-08T09:29:27.438Z,4089.00
2023-05-08T09:30:27.444Z,4516.00
2023-05-08T09:31:27.432Z,4245.00
2023-05-08T09:32:27.441Z,4206.00
2023-05-08T09:33:27.406Z,4431.00
2023-05-08T09:34:27.389Z,4181.00
2023-05-08T09:35:27.370Z,4312.00
2023-05-08T09:36:27.373Z,4337.00
2023-05-08T09:37:27.378Z,4419.00
2023-05-08T09:38:27.341Z,4470.00
2023-05-08T09:39:27.318Z,4370.00
2023-05-08T09:40:27.333Z,4450.00
2023-05-08T09:41:27.304Z,4418.00
2023-05-08T09:42:27.300Z,4340.00
2023-05-08T09:43:27.290Z,4441.00
2023-05-08T09:44:27.274Z,4344.00
2023-05-08T09:45:27.345Z,4554.00
2023-05-08T09:46:27.337Z,4299.00
2023-05-08T09:47:27.278Z,4329.00
2023-05-08T09:48:27.237Z,4328.00
2023-05-08T09:49:27.238Z,4236.00
2023-05-08T09:50:27.221Z,4500.00
2023-05-08T09:51:27.208Z,4566.00
2023-05-08T09:52:27.190Z,4402.00
2023-05-08T09:53:27.189Z,4511.00
2023-05-08T09:54:27.180Z,4466.00
2023-05-08T09:55:27.164Z,4573.00
2023-05-08T09:56:27.159Z,4542.00
2023-05-08T09:57:27.148Z,4602.00
2023-05-08T09:58:27.163Z,4789.00
2023-05-08T09:59:27.138Z,4631.00
2023-05-08T10:00:27.156Z,4663.00
2023-05-08T10:01:27.141Z,4818.00
2023-05-08T10:02:27.149Z,4546.00
2023-05-08T10:03:27.096Z,4637.00
2023-05-08T10:04:27.061Z,4703.00
2023-05-08T10:05:27.122Z,4876.00
2023-05-08T10:06:27.063Z,4782.00
2023-05-08T10:07:27.040Z,4938.00
2023-05-08T10:08:27.014Z,4801.00
2023-05-08T10:09:32.805Z,5051.00
2023-05-08T10:10:26.998Z,4885.00
2023-05-08T10:11:26.987Z,5210.00
2023-05-08T10:12:26.980Z,5079.00
2023-05-08T10:13:27.046Z,5138.00
2023-05-08T10:14:26.990Z,5378.00
2023-05-08T10:15:26.929Z,5337.00
2023-05-08T10:16:26.970Z,5477.00
2023-05-08T10:17:26.940Z,5299.00
2023-05-08T10:18:26.908Z,5426.00
2023-05-08T10:19:26.921Z,5665.00
2023-05-08T10:20:26.890Z,5512.00
2023-05-08T10:21:26.852Z,5728.00
2023-05-08T10:22:26.862Z,5573.00
2023-05-08T10:23:26.859Z,5816.00
2023-05-08T10:24:26.845Z,5737.00
2023-05-08T10:25:26.864Z,5972.00
2023-05-08T10:26:26.858Z,5878.00
2023-05-08T10:27:26.800Z,5772.00
2023-05-08T10:28:26.805Z,6184.00
2023-05-08T10:29:26.781Z,5747.00
2023-05-08T10:30:26.810Z,6257.00
2023-05-08T10:31:26.827Z,6101.00
2023-05-08T10:32:26.777Z,6520.00
2023-05-08T10:33:27.292Z,6532.00
2023-05-08T10:34:26.737Z,6454.00
2023-05-08T10:35:26.722Z,6680.00
2023-05-08T10:36:28.109Z,6837.00
2023-05-08T10:37:26.681Z,6505.00
2023-05-08T10:38:26.705Z,6769.00
2023-05-08T10:39:26.683Z,6793.00
2023-05-08T10:40:26.688Z,7008.00
2023-05-08T10:41:26.655Z,6876.00
2023-05-08T10:42:26.636Z,6901.00
2023-05-08T10:43:26.613Z,6936.00
2023-05-08T10:44:26.614Z,6978.00
2023-05-08T10:45:26.608Z,7212.00
2023-05-08T10:46:26.681Z,6814.00
2023-05-08T10:47:26.618Z,7016.00
2023-05-08T10:48:26.579Z,7090.00
2023-05-08T10:49:26.552Z,7079.00
2023-05-08T10:50:26.571Z,7092.00
2023-05-08T10:51:26.559Z,7009.00
2023-05-08T10:52:26.550Z,7058.00
2023-05-08T10:53:26.521Z,7143.00
2023-05-08T10:54:27.933Z,7037.00
2023-05-08T10:55:26.478Z,7097.00
2023-05-08T10:56:26.550Z,7088.00
2023-05-08T10:57:26.467Z,7121.00
2023-05-08T10:58:26.454Z,7108.00
2023-05-08T10:59:26.455Z,7113.00
2023-05-08T11:00:26.447Z,7104.00
2023-05-08T11:01:26.532Z,7161.00
2023-05-08T11:02:26.508Z,7058.00
2023-05-08T11:03:31.988Z,7123.00
2023-05-08T11:04:26.452Z,7126.00
2023-05-08T11:05:26.357Z,7028.00
2023-05-08T11:06:26.397Z,7158.00
2023-05-08T11:07:26.359Z,7175.00
2023-05-08T11:08:26.368Z,7145.00
2023-05-08T11:09:26.338Z,7155.00
2023-05-08T11:10:26.321Z,7186.00
2023-05-08T11:11:26.297Z,7177.00
2023-05-08T11:12:26.351Z,7157.00
2023-05-08T11:13:26.381Z,7073.00
2023-05-08T11:14:26.307Z,7121.00
2023-05-08T11:15:26.278Z,7172.00
2023-05-08T11:16:26.308Z,7141.00
2023-05-08T11:17:26.326Z,7083.00
2023-05-08T11:18:28.091Z,7141.00
2023-05-08T11:19:26.238Z,7196.00
2023-05-08T11:20:26.203Z,7064.00
2023-05-08T11:21:26.208Z,7126.00
2023-05-08T11:22:26.213Z,7128.00
2023-05-08T11:23:26.172Z,7148.00
2023-05-08T11:24:26.159Z,7099.00
2023-05-08T11:25:26.149Z,7120.00
2023-05-08T11:26:26.158Z,7105.00
2023-05-08T11:27:26.148Z,7078.00
2023-05-08T11:28:26.115Z,7149.00
2023-05-08T11:29:26.108Z,7083.00
2023-05-08T11:30:26.105Z,7151.00
2023-05-08T11:31:26.098Z,7077.00
2023-05-08T11:32:26.119Z,7074.00
2023-05-08T11:33:26.081Z,7221.00
2023-05-08T11:34:26.048Z,7169.00
2023-05-08T11:35:26.029Z,7037.00
2023-05-08T11:36:26.051Z,7037.00
2023-05-08T11:37:26.036Z,7134.00
2023-05-08T11:38:26.034Z,7092.00
2023-05-08T11:39:25.993Z,7116.00
2023-05-08T11:40:25.985Z,7085.00
2023-05-08T11:41:26.131Z,7119.00
2023-05-08T11:42:26.010Z,7064.00
2023-05-08T11:43:25.972Z,7212.00
2023-05-08T11:44:25.952Z,7189.00
2023-05-08T11:45:25.917Z,7281.00
2023-05-08T11:46:26.011Z,7228.00
2023-05-08T11:47:25.958Z,7295.00
2023-05-08T11:48:25.964Z,7308.00
2023-05-08T11:49:29.024Z,7413.00
2023-05-08T11:50:26.619Z,7525.00
2023-05-08T11:51:25.856Z,7443.00
2023-05-08T11:52:25.856Z,7655.00
2023-05-08T11:53:25.839Z,7721.00
2023-05-08T11:54:25.869Z,7789.00
2023-05-08T11:55:25.840Z,7836.00
2023-05-08T11:56:25.811Z,7959.00
2023-05-08T11:57:25.786Z,7773.00
2023-05-08T11:58:25.811Z,8191.00
2023-05-08T11:59:25.775Z,8118.00
2023-05-08T12:00:25.789Z,7953.00
2023-05-08T12:01:25.779Z,8129.00
2023-05-08T12:02:25.791Z,8293.00
2023-05-08T12:03:26.085Z,8504.00
2023-05-08T12:04:25.759Z,8192.00
2023-05-08T12:05:25.707Z,8070.00
2023-05-08T12:06:25.730Z,8354.00
2023-05-08T12:07:25.720Z,9283.00
2023-05-08T12:08:25.698Z,10431.00
2023-05-08T12:09:25.683Z,11032.00
2023-05-08T12:10:25.651Z,10690.00
2023-05-08T12:11:25.651Z,10022.00
2023-05-08T12:12:25.632Z,9510.00
2023-05-08T12:13:25.783Z,10382.00
2023-05-08T12:14:25.629Z,10584.00
2023-05-08T12:15:25.613Z,10737.00
2023-05-08T12:16:25.632Z,10513.00
2023-05-08T12:17:25.783Z,10222.00
2023-05-08T12:18:25.577Z,11106.00
2023-05-08T12:19:25.561Z,11626.00
2023-05-08T12:20:25.547Z,10951.00
2023-05-08T12:21:25.526Z,10436.00
2023-05-08T12:22:25.533Z,10473.00
2023-05-08T12:23:25.515Z,10911.00
2023-05-08T12:24:25.545Z,11937.00
2023-05-08T12:25:25.491Z,12104.00
2023-05-08T12:26:25.471Z,11364.00
2023-05-08T12:27:25.493Z,11442.00
2023-05-08T12:28:25.457Z,12109.00
2023-05-08T12:29:25.497Z,12972.00
2023-05-08T12:30:25.457Z,12331.00
2023-05-08T12:31:25.490Z,13229.00
2023-05-08T12:32:27.162Z,12995.00
2023-05-08T12:33:25.393Z,12964.00
2023-05-08T12:34:25.429Z,12798.00
2023-05-08T12:35:25.401Z,13656.00
2023-05-08T12:36:25.408Z,14377.00
2023-05-08T12:37:25.360Z,13800.00
2023-05-08T12:38:25.371Z,15221.00
2023-05-08T12:39:25.341Z,15119.00
2023-05-08T12:40:25.336Z,14687.00
2023-05-08T12:41:25.336Z,15452.00
2023-05-08T12:42:25.317Z,15847.00
2023-05-08T12:43:25.297Z,15128.00
2023-05-08T12:44:25.303Z,15667.00
2023-05-08T12:45:25.273Z,16517.00
2023-05-08T12:46:25.303Z,18116.00
2023-05-08T12:47:25.265Z,16869.00
2023-05-08T12:48:25.253Z,16460.00
2023-05-08T12:49:25.267Z,18860.00
2023-05-08T12:50:25.259Z,19278.00
2023-05-08T12:51:25.208Z,17337.00
2023-05-08T12:52:25.213Z,19813.00
2023-05-08T12:53:25.178Z,20523.00
2023-05-08T12:54:25.178Z,18425.00
2023-05-08T12:55:25.165Z,18221.00
2023-05-08T12:56:25.152Z,20381.00
2023-05-08T12:57:25.135Z,21922.00
2023-05-08T12:58:25.130Z,19454.00
2023-05-08T12:59:25.356Z,19037.00
2023-05-08T13:00:25.118Z,22690.00
2023-05-08T13:01:25.146Z,22114.00
2023-05-08T13:02:25.237Z,21337.00
2023-05-08T13:03:25.153Z,27007.00
2023-05-08T13:04:25.175Z,24087.00
2023-05-08T13:05:25.068Z,23767.00
2023-05-08T13:06:25.043Z,25960.00
2023-05-08T13:07:25.044Z,22029.00
2023-05-08T13:08:25.030Z,22058.00
2023-05-08T13:09:25.015Z,23634.00
2023-05-08T13:10:26.669Z,22919.00
2023-05-08T13:11:24.990Z,26904.00
2023-05-08T13:12:25.000Z,27705.00
2023-05-08T13:13:25.082Z,26113.00
2023-05-08T13:14:24.953Z,27820.00
2023-05-08T13:15:24.972Z,29256.00
2023-05-08T13:16:25.021Z,26699.00
2023-05-08T13:17:24.965Z,24325.00
2023-05-08T13:18:24.926Z,31103.00
2023-05-08T13:19:24.921Z,34086.00
2023-05-08T13:20:25.191Z,30309.00
2023-05-08T13:21:27.241Z,30149.00
2023-05-08T13:22:24.868Z,31322.00
2023-05-08T13:23:24.857Z,31084.00
2023-05-08T13:24:24.951Z,30567.00
2023-05-08T13:25:24.844Z,32935.00
2023-05-08T13:26:24.832Z,29831.00
2023-05-08T13:27:24.823Z,27706.00
2023-05-08T13:28:25.198Z,32916.00
2023-05-08T13:29:24.807Z,33552.00
2023-05-08T13:30:24.784Z,34281.00
2023-05-08T13:31:24.840Z,33265.00
2023-05-08T13:32:24.815Z,33409.00
2023-05-08T13:33:24.792Z,33125.00
2023-05-08T13:34:24.741Z,35749.00
2023-05-08T13:35:24.822Z,72459.00
2023-05-08T13:36:24.744Z,72470.00
2023-05-08T13:37:24.718Z,72593.00
2023-05-08T13:38:24.688Z,73343.00
2023-05-08T13:39:24.698Z,73432.00
2023-05-08T13:40:24.689Z,73462.00
2023-05-08T13:41:24.691Z,75049.00
2023-05-08T13:42:24.662Z,75618.00
2023-05-08T13:43:24.707Z,74061.00
2023-05-08T13:44:24.636Z,73647.00
2023-05-08T13:45:24.630Z,73883.00
2023-05-08T13:46:24.674Z,74440.00
2023-05-08T13:47:24.613Z,74962.00
2023-05-08T13:48:24.587Z,74550.00
2023-05-08T13:49:24.578Z,74832.00
2023-05-08T13:50:24.582Z,76769.00
2023-05-08T13:51:24.583Z,75958.00
2023-05-08T13:52:24.552Z,73634.00
2023-05-08T13:53:24.558Z,74374.00
2023-05-08T13:54:24.531Z,74987.00
2023-05-08T13:55:24.546Z,74167.00
2023-05-08T13:56:24.528Z,73570.00
2023-05-08T13:57:24.504Z,73465.00
2023-05-08T13:58:24.482Z,74747.00
2023-05-08T13:59:24.493Z,76250.00
2023-05-08T14:00:26.600Z,75758.00
2023-05-08T14:01:27.014Z,73945.00
2023-05-08T14:02:24.582Z,73791.00
2023-05-08T14:03:24.574Z,74791.00
2023-05-08T14:04:24.470Z,75754.00
2023-05-08T14:05:24.559Z,75755.00
2023-05-08T14:06:24.401Z,74632.00
2023-05-08T14:07:24.412Z,74592.00
2023-05-08T14:08:24.419Z,76013.00
2023-05-08T14:09:24.393Z,76060.00
2023-05-08T14:10:24.367Z,75197.00
2023-05-08T14:11:24.367Z,75580.00
2023-05-08T14:12:24.370Z,76839.00
2023-05-08T14:13:24.398Z,77657.00
2023-05-08T14:14:24.315Z,77852.00
2023-05-08T14:15:29.187Z,77153.00
2023-05-08T14:16:24.355Z,76636.00
2023-05-08T14:17:24.345Z,77353.00
2023-05-08T14:18:24.294Z,77845.00
2023-05-08T14:19:24.286Z,76349.00
2023-05-08T14:20:24.263Z,77021.00
2023-05-08T14:21:24.275Z,78452.00
2023-05-08T14:22:24.267Z,77190.00
2023-05-08T14:23:24.231Z,76708.00
2023-05-08T14:24:24.210Z,77943.00
2023-05-08T14:25:24.209Z,78863.00
2023-05-08T14:26:24.213Z,78639.00
2023-05-08T14:27:24.216Z,77837.00
2023-05-08T14:28:24.198Z,76570.00
2023-05-08T14:29:24.183Z,76724.00
2023-05-08T14:30:24.157Z,78011.00
2023-05-08T14:31:24.226Z,78176.00
2023-05-08T14:32:24.196Z,78050.00
2023-05-08T14:33:24.134Z,78753.00
2023-05-08T14:34:24.108Z,78790.00
2023-05-08T14:35:24.120Z,77681.00
2023-05-08T14:36:24.092Z,76441.00
2023-05-08T14:37:24.150Z,76202.00
2023-05-08T14:38:24.179Z,76658.00
2023-05-08T14:39:24.130Z,77851.00
2023-05-08T14:40:24.674Z,79755.00
2023-05-08T14:41:24.054Z,75731.00
2023-05-08T14:42:24.351Z,70365.00
2023-05-08T14:43:24.125Z,23363.00
2023-05-08T14:44:24.023Z,75843.00
2023-05-08T14:45:24.004Z,80865.00
2023-05-08T14:46:24.062Z,76315.00
2023-05-08T14:47:24.026Z,70962.00
2023-05-08T14:48:24.004Z,30581.00
2023-05-08T15:11:26.523Z,23450.00
2023-05-08T15:11:31.980Z,7443.00
2023-05-08T15:12:31.957Z,78580.00
2023-05-08T15:13:32.085Z,76688.00
2023-05-08T15:14:31.954Z,78455.00
2023-05-08T15:15:31.944Z,79185.00
2023-05-08T15:16:32.039Z,80226.00
2023-05-08T15:17:31.933Z,77138.00
2023-05-08T15:18:31.886Z,77977.00
2023-05-08T15:19:31.966Z,76751.00
2023-05-08T15:20:31.879Z,78460.00
2023-05-08T15:21:31.864Z,78174.00
2023-05-08T15:22:31.937Z,74387.00
2023-05-08T15:23:31.863Z,77571.00
2023-05-08T15:24:31.851Z,79827.00
2023-05-08T15:25:31.835Z,80776.00
2023-05-08T15:26:31.805Z,80589.00
2023-05-08T15:27:31.823Z,81547.00
2023-05-08T15:28:31.791Z,82326.00
2023-05-08T15:29:31.798Z,81762.00
2023-05-08T15:30:31.783Z,81020.00
2023-05-08T15:31:31.808Z,71822.00
2023-05-08T15:32:31.788Z,10929.00
2023-05-08T15:33:31.735Z,83489.00
2023-05-08T15:34:33.006Z,81266.00
2023-05-08T15:35:31.717Z,82901.00
2023-05-08T15:36:31.713Z,82245.00
2023-05-08T15:37:31.696Z,82775.00
2023-05-08T15:38:31.705Z,82189.00
2023-05-08T15:39:31.683Z,82647.00
2023-05-08T15:40:31.662Z,82957.00
2023-05-08T15:41:31.652Z,83071.00
2023-05-08T15:42:31.647Z,83414.00
2023-05-08T15:43:31.640Z,83396.00
2023-05-08T15:44:52.662Z,83577.00
2023-05-08T15:45:31.665Z,82805.00
2023-05-08T15:46:31.649Z,83396.00
2023-05-08T15:47:31.758Z,82718.00
2023-05-08T15:48:31.583Z,82691.00
2023-05-08T15:49:31.579Z,82615.00
2023-05-08T15:50:31.582Z,82056.00
2023-05-08T15:51:31.573Z,81968.00
2023-05-08T15:52:31.540Z,82779.00
2023-05-08T15:53:31.546Z,83520.00
2023-05-08T15:54:31.534Z,82725.00
2023-05-08T15:55:31.514Z,81083.00
2023-05-08T15:56:31.494Z,81850.00
2023-05-08T15:57:31.513Z,82377.00
2023-05-08T15:58:31.522Z,80756.00
2023-05-08T15:59:31.515Z,78964.00
2023-05-08T16:00:43.945Z,77412.00
2023-05-08T16:01:31.563Z,79335.00
2023-05-08T16:02:31.585Z,79714.00
2023-05-08T16:03:31.569Z,80040.00
2023-05-08T16:04:31.426Z,79784.00
2023-05-08T16:05:31.432Z,78552.00
2023-05-08T16:06:31.427Z,79157.00
2023-05-08T16:07:31.406Z,77652.00
2023-05-08T16:08:31.395Z,78839.00
2023-05-08T16:09:31.385Z,79846.00
2023-05-08T16:10:31.361Z,81501.00
2023-05-08T16:11:31.347Z,82531.00
2023-05-08T16:12:31.849Z,81575.00
2023-05-08T16:13:31.364Z,80476.00
2023-05-08T16:14:31.319Z,80105.00
2023-05-08T16:15:31.339Z,78903.00
2023-05-08T16:16:31.368Z,78887.00
2023-05-08T16:17:31.386Z,78073.00
2023-05-08T16:18:31.312Z,77556.00
2023-05-08T16:19:31.472Z,76855.00
2023-05-08T16:20:33.354Z,78516.00
2023-05-08T16:21:31.258Z,78887.00
2023-05-08T16:22:31.995Z,78531.00
2023-05-08T16:23:31.219Z,77958.00